sensor_id;sensor_type;location;lat;lon;timestamp;P1;durP1;ratioP1;P2;durP2;ratioP2
19985;SDS011;10154;52.474;10.768;2023-04-15T00:05:30;5.20;;;3.40;;
19985;SDS011;10154;52.474;10.768;2023-04-15T00:07:55;5.83;;;3.73;;
19985;SDS011;10154;52.474;10.768;2023-04-15T00:10:21;5.67;;;3.40;;
19985;SDS011;10154;52.474;10.768;2023-04-15T00:12:47;8.20;;;4.37;;
19985;SDS011;10154;52.474;10.768;2023-04-15T00:15:12;7.43;;;4.10;;
19985;SDS011;10154;52.474;10.768;2023-04-15T00:17:37;7.23;;;4.13;;
19985;SDS011;10154;52.474;10.768;2023-04-15T00:20:04;7.93;;;4.17;;
19985;SDS011;10154;52.474;10.768;2023-04-15T00:22:30;6.57;;;4.37;;
19985;SDS011;10154;52.474;10.768;2023-04-15T00:24:56;6.67;;;4.30;;
19985;SDS011;10154;52.474;10.768;2023-04-15T00:27:22;8.87;;;4.80;;
19985;SDS011;10154;52.474;10.768;2023-04-15T00:29:48;5.73;;;3.80;;
19985;SDS011;10154;52.474;10.768;2023-04-15T00:32:14;8.60;;;4.37;;
19985;SDS011;10154;52.474;10.768;2023-04-15T00:34:39;9.93;;;5.03;;
19985;SDS011;10154;52.474;10.768;2023-04-15T00:37:05;8.47;;;4.77;;
19985;SDS011;10154;52.474;10.768;2023-04-15T00:39:30;9.10;;;5.37;;
19985;SDS011;10154;52.474;10.768;2023-04-15T00:41:56;13.50;;;5.57;;
19985;SDS011;10154;52.474;10.768;2023-04-15T00:44:22;7.97;;;5.07;;
19985;SDS011;10154;52.474;10.768;2023-04-15T00:46:47;9.63;;;5.40;;
19985;SDS011;10154;52.474;10.768;2023-04-15T00:49:15;8.87;;;5.17;;
19985;SDS011;10154;52.474;10.768;2023-04-15T00:51:41;8.93;;;5.23;;
19985;SDS011;10154;52.474;10.768;2023-04-15T00:54:06;9.63;;;5.23;;
19985;SDS011;10154;52.474;10.768;2023-04-15T00:56:35;10.00;;;5.30;;
19985;SDS011;10154;52.474;10.768;2023-04-15T00:59:02;9.03;;;5.40;;
19985;SDS011;10154;52.474;10.768;2023-04-15T01:01:28;9.37;;;5.40;;
19985;SDS011;10154;52.474;10.768;2023-04-15T01:03:54;8.63;;;5.13;;
19985;SDS011;10154;52.474;10.768;2023-04-15T01:06:22;10.40;;;5.17;;
19985;SDS011;10154;52.474;10.768;2023-04-15T01:08:47;10.33;;;5.87;;
19985;SDS011;10154;52.474;10.768;2023-04-15T01:11:12;10.23;;;5.70;;
19985;SDS011;10154;52.474;10.768;2023-04-15T01:13:38;10.17;;;5.90;;
19985;SDS011;10154;52.474;10.768;2023-04-15T01:16:04;9.87;;;5.80;;
19985;SDS011;10154;52.474;10.768;2023-04-15T01:18:30;8.67;;;4.63;;
19985;SDS011;10154;52.474;10.768;2023-04-15T01:20:56;11.10;;;5.70;;
19985;SDS011;10154;52.474;10.768;2023-04-15T01:23:21;9.37;;;5.70;;
19985;SDS011;10154;52.474;10.768;2023-04-15T01:25:49;7.70;;;4.73;;
19985;SDS011;10154;52.474;10.768;2023-04-15T01:28:15;7.93;;;4.07;;
19985;SDS011;10154;52.474;10.768;2023-04-15T01:30:40;9.17;;;5.57;;
19985;SDS011;10154;52.474;10.768;2023-04-15T01:33:06;7.80;;;4.87;;
19985;SDS011;10154;52.474;10.768;2023-04-15T01:35:32;7.33;;;3.90;;
19985;SDS011;10154;52.474;10.768;2023-04-15T01:38:06;8.37;;;4.90;;
19985;SDS011;10154;52.474;10.768;2023-04-15T01:40:33;8.93;;;5.10;;
19985;SDS011;10154;52.474;10.768;2023-04-15T01:42:59;8.50;;;5.27;;
19985;SDS011;10154;52.474;10.768;2023-04-15T01:45:25;12.90;;;5.10;;
19985;SDS011;10154;52.474;10.768;2023-04-15T01:47:51;8.90;;;4.57;;
19985;SDS011;10154;52.474;10.768;2023-04-15T01:50:16;6.97;;;4.20;;
19985;SDS011;10154;52.474;10.768;2023-04-15T01:52:42;6.83;;;4.10;;
19985;SDS011;10154;52.474;10.768;2023-04-15T01:55:08;7.27;;;4.53;;
19985;SDS011;10154;52.474;10.768;2023-04-15T01:57:34;7.93;;;4.40;;
19985;SDS011;10154;52.474;10.768;2023-04-15T01:59:59;7.97;;;4.70;;
19985;SDS011;10154;52.474;10.768;2023-04-15T02:02:25;7.30;;;4.73;;
19985;SDS011;10154;52.474;10.768;2023-04-15T02:04:50;8.00;;;4.60;;
19985;SDS011;10154;52.474;10.768;2023-04-15T02:07:15;8.30;;;4.77;;
19985;SDS011;10154;52.474;10.768;2023-04-15T02:09:41;8.93;;;4.90;;
19985;SDS011;10154;52.474;10.768;2023-04-15T02:12:07;10.03;;;5.80;;
19985;SDS011;10154;52.474;10.768;2023-04-15T02:14:33;8.63;;;4.70;;
19985;SDS011;10154;52.474;10.768;2023-04-15T02:16:58;7.90;;;4.60;;
19985;SDS011;10154;52.474;10.768;2023-04-15T02:19:31;8.07;;;4.33;;
19985;SDS011;10154;52.474;10.768;2023-04-15T02:21:56;7.37;;;4.40;;
19985;SDS011;10154;52.474;10.768;2023-04-15T02:24:22;7.33;;;4.33;;
19985;SDS011;10154;52.474;10.768;2023-04-15T02:26:47;7.27;;;4.67;;
19985;SDS011;10154;52.474;10.768;2023-04-15T02:29:12;7.93;;;3.87;;
19985;SDS011;10154;52.474;10.768;2023-04-15T02:31:38;6.77;;;4.00;;
19985;SDS011;10154;52.474;10.768;2023-04-15T02:34:04;7.63;;;4.47;;
19985;SDS011;10154;52.474;10.768;2023-04-15T02:36:30;8.07;;;4.70;;
19985;SDS011;10154;52.474;10.768;2023-04-15T02:38:55;9.63;;;4.47;;
19985;SDS011;10154;52.474;10.768;2023-04-15T02:41:21;7.70;;;4.50;;
19985;SDS011;10154;52.474;10.768;2023-04-15T02:43:51;6.67;;;3.93;;
19985;SDS011;10154;52.474;10.768;2023-04-15T02:46:16;7.23;;;4.30;;
19985;SDS011;10154;52.474;10.768;2023-04-15T02:48:41;6.67;;;4.17;;
19985;SDS011;10154;52.474;10.768;2023-04-15T02:51:11;7.77;;;4.33;;
19985;SDS011;10154;52.474;10.768;2023-04-15T02:53:37;6.17;;;3.70;;
19985;SDS011;10154;52.474;10.768;2023-04-15T02:56:02;8.37;;;4.10;;
19985;SDS011;10154;52.474;10.768;2023-04-15T02:58:28;6.23;;;3.43;;
19985;SDS011;10154;52.474;10.768;2023-04-15T03:00:53;7.13;;;4.20;;
19985;SDS011;10154;52.474;10.768;2023-04-15T03:03:18;7.67;;;4.50;;
19985;SDS011;10154;52.474;10.768;2023-04-15T03:05:44;6.83;;;3.97;;
19985;SDS011;10154;52.474;10.768;2023-04-15T03:08:09;8.10;;;4.60;;
19985;SDS011;10154;52.474;10.768;2023-04-15T03:10:35;6.73;;;4.27;;
19985;SDS011;10154;52.474;10.768;2023-04-15T03:13:00;8.47;;;4.70;;
19985;SDS011;10154;52.474;10.768;2023-04-15T03:15:26;7.17;;;4.47;;
19985;SDS011;10154;52.474;10.768;2023-04-15T03:17:51;8.50;;;5.10;;
19985;SDS011;10154;52.474;10.768;2023-04-15T03:20:17;7.30;;;4.57;;
19985;SDS011;10154;52.474;10.768;2023-04-15T03:22:42;8.43;;;4.47;;
19985;SDS011;10154;52.474;10.768;2023-04-15T03:25:08;6.93;;;4.30;;
19985;SDS011;10154;52.474;10.768;2023-04-15T03:27:33;6.83;;;4.00;;
19985;SDS011;10154;52.474;10.768;2023-04-15T03:29:58;7.20;;;4.20;;
19985;SDS011;10154;52.474;10.768;2023-04-15T03:32:24;5.80;;;3.47;;
19985;SDS011;10154;52.474;10.768;2023-04-15T03:34:49;7.50;;;4.20;;
19985;SDS011;10154;52.474;10.768;2023-04-15T03:37:15;7.47;;;4.50;;
19985;SDS011;10154;52.474;10.768;2023-04-15T03:39:40;8.83;;;4.07;;
19985;SDS011;10154;52.474;10.768;2023-04-15T03:42:05;7.20;;;4.20;;
19985;SDS011;10154;52.474;10.768;2023-04-15T03:44:31;6.37;;;3.73;;
19985;SDS011;10154;52.474;10.768;2023-04-15T03:46:56;6.43;;;3.70;;
19985;SDS011;10154;52.474;10.768;2023-04-15T03:49:22;6.97;;;4.17;;
19985;SDS011;10154;52.474;10.768;2023-04-15T03:51:48;6.00;;;3.37;;
19985;SDS011;10154;52.474;10.768;2023-04-15T03:54:13;7.67;;;3.97;;
19985;SDS011;10154;52.474;10.768;2023-04-15T03:56:39;5.00;;;3.10;;
19985;SDS011;10154;52.474;10.768;2023-04-15T03:59:05;10.13;;;5.03;;
19985;SDS011;10154;52.474;10.768;2023-04-15T04:01:30;8.60;;;4.10;;
19985;SDS011;10154;52.474;10.768;2023-04-15T04:03:56;6.57;;;3.57;;
19985;SDS011;10154;52.474;10.768;2023-04-15T04:06:21;7.87;;;4.30;;
19985;SDS011;10154;52.474;10.768;2023-04-15T04:08:46;8.30;;;4.40;;
19985;SDS011;10154;52.474;10.768;2023-04-15T04:11:12;6.70;;;4.00;;
19985;SDS011;10154;52.474;10.768;2023-04-15T04:13:37;6.47;;;3.90;;
19985;SDS011;10154;52.474;10.768;2023-04-15T04:16:03;8.33;;;4.00;;
19985;SDS011;10154;52.474;10.768;2023-04-15T04:18:29;9.33;;;4.50;;
19985;SDS011;10154;52.474;10.768;2023-04-15T04:20:55;9.53;;;4.67;;
19985;SDS011;10154;52.474;10.768;2023-04-15T04:23:21;5.77;;;3.27;;
19985;SDS011;10154;52.474;10.768;2023-04-15T04:25:46;7.27;;;4.13;;
19985;SDS011;10154;52.474;10.768;2023-04-15T04:28:12;6.93;;;3.67;;
19985;SDS011;10154;52.474;10.768;2023-04-15T04:30:38;8.70;;;3.77;;
19985;SDS011;10154;52.474;10.768;2023-04-15T04:33:04;5.20;;;3.20;;
19985;SDS011;10154;52.474;10.768;2023-04-15T04:35:29;7.63;;;3.90;;
19985;SDS011;10154;52.474;10.768;2023-04-15T04:37:54;6.40;;;3.87;;
19985;SDS011;10154;52.474;10.768;2023-04-15T04:40:20;5.80;;;3.73;;
19985;SDS011;10154;52.474;10.768;2023-04-15T04:42:46;8.23;;;3.67;;
19985;SDS011;10154;52.474;10.768;2023-04-15T04:45:11;6.13;;;3.67;;
19985;SDS011;10154;52.474;10.768;2023-04-15T04:47:37;6.13;;;3.83;;
19985;SDS011;10154;52.474;10.768;2023-04-15T04:50:02;6.80;;;4.07;;
19985;SDS011;10154;52.474;10.768;2023-04-15T04:52:28;6.63;;;4.00;;
19985;SDS011;10154;52.474;10.768;2023-04-15T04:54:53;7.60;;;4.40;;
19985;SDS011;10154;52.474;10.768;2023-04-15T04:57:18;6.83;;;3.93;;
19985;SDS011;10154;52.474;10.768;2023-04-15T04:59:44;5.40;;;3.40;;
19985;SDS011;10154;52.474;10.768;2023-04-15T05:02:09;6.27;;;3.87;;
19985;SDS011;10154;52.474;10.768;2023-04-15T05:04:35;4.97;;;3.20;;
19985;SDS011;10154;52.474;10.768;2023-04-15T05:07:01;5.37;;;3.40;;
19985;SDS011;10154;52.474;10.768;2023-04-15T05:09:26;6.60;;;3.60;;
19985;SDS011;10154;52.474;10.768;2023-04-15T05:11:52;5.00;;;3.10;;
19985;SDS011;10154;52.474;10.768;2023-04-15T05:14:17;4.80;;;2.87;;
19985;SDS011;10154;52.474;10.768;2023-04-15T05:16:43;5.67;;;3.40;;
19985;SDS011;10154;52.474;10.768;2023-04-15T05:19:08;7.33;;;3.50;;
19985;SDS011;10154;52.474;10.768;2023-04-15T05:21:33;5.43;;;3.40;;
19985;SDS011;10154;52.474;10.768;2023-04-15T05:23:58;5.87;;;3.40;;
19985;SDS011;10154;52.474;10.768;2023-04-15T05:26:24;5.57;;;3.43;;
19985;SDS011;10154;52.474;10.768;2023-04-15T05:28:51;4.90;;;2.87;;
19985;SDS011;10154;52.474;10.768;2023-04-15T05:31:16;6.43;;;3.03;;
19985;SDS011;10154;52.474;10.768;2023-04-15T05:33:42;4.83;;;2.87;;
19985;SDS011;10154;52.474;10.768;2023-04-15T05:36:07;4.07;;;2.80;;
19985;SDS011;10154;52.474;10.768;2023-04-15T05:38:33;4.57;;;2.90;;
19985;SDS011;10154;52.474;10.768;2023-04-15T05:40:58;5.20;;;3.60;;
19985;SDS011;10154;52.474;10.768;2023-04-15T05:43:23;4.20;;;2.70;;
19985;SDS011;10154;52.474;10.768;2023-04-15T05:45:48;4.77;;;2.80;;
19985;SDS011;10154;52.474;10.768;2023-04-15T05:48:14;6.53;;;3.33;;
19985;SDS011;10154;52.474;10.768;2023-04-15T05:50:40;5.20;;;3.17;;
19985;SDS011;10154;52.474;10.768;2023-04-15T05:53:06;4.83;;;2.97;;
19985;SDS011;10154;52.474;10.768;2023-04-15T05:55:32;4.07;;;2.77;;
19985;SDS011;10154;52.474;10.768;2023-04-15T05:57:57;6.57;;;3.20;;
19985;SDS011;10154;52.474;10.768;2023-04-15T06:00:23;4.23;;;2.87;;
19985;SDS011;10154;52.474;10.768;2023-04-15T06:02:48;6.57;;;3.53;;
19985;SDS011;10154;52.474;10.768;2023-04-15T06:05:14;6.33;;;2.93;;
19985;SDS011;10154;52.474;10.768;2023-04-15T06:07:39;5.33;;;3.23;;
19985;SDS011;10154;52.474;10.768;2023-04-15T06:10:05;4.47;;;2.73;;
19985;SDS011;10154;52.474;10.768;2023-04-15T06:12:31;4.23;;;2.70;;
19985;SDS011;10154;52.474;10.768;2023-04-15T06:14:56;4.20;;;2.70;;
19985;SDS011;10154;52.474;10.768;2023-04-15T06:17:22;4.73;;;2.20;;
19985;SDS011;10154;52.474;10.768;2023-04-15T06:19:47;3.17;;;2.27;;
19985;SDS011;10154;52.474;10.768;2023-04-15T06:22:14;3.83;;;2.67;;
19985;SDS011;10154;52.474;10.768;2023-04-15T06:24:39;3.93;;;2.70;;
19985;SDS011;10154;52.474;10.768;2023-04-15T06:27:05;3.83;;;2.50;;
19985;SDS011;10154;52.474;10.768;2023-04-15T06:29:30;4.70;;;2.50;;
19985;SDS011;10154;52.474;10.768;2023-04-15T06:31:55;4.53;;;2.57;;
19985;SDS011;10154;52.474;10.768;2023-04-15T06:34:21;3.83;;;2.40;;
19985;SDS011;10154;52.474;10.768;2023-04-15T06:36:46;5.63;;;2.80;;
19985;SDS011;10154;52.474;10.768;2023-04-15T06:39:12;3.60;;;2.20;;
19985;SDS011;10154;52.474;10.768;2023-04-15T06:41:37;4.57;;;2.80;;
19985;SDS011;10154;52.474;10.768;2023-04-15T06:44:03;4.67;;;2.60;;
19985;SDS011;10154;52.474;10.768;2023-04-15T06:46:28;4.03;;;2.50;;
19985;SDS011;10154;52.474;10.768;2023-04-15T06:48:53;3.47;;;1.90;;
19985;SDS011;10154;52.474;10.768;2023-04-15T06:51:19;4.53;;;2.50;;
19985;SDS011;10154;52.474;10.768;2023-04-15T06:53:44;4.37;;;2.80;;
19985;SDS011;10154;52.474;10.768;2023-04-15T06:56:10;4.27;;;2.87;;
19985;SDS011;10154;52.474;10.768;2023-04-15T06:58:35;4.93;;;2.80;;
19985;SDS011;10154;52.474;10.768;2023-04-15T07:01:01;4.03;;;2.67;;
19985;SDS011;10154;52.474;10.768;2023-04-15T07:03:26;4.00;;;2.50;;
19985;SDS011;10154;52.474;10.768;2023-04-15T07:05:51;4.03;;;2.60;;
19985;SDS011;10154;52.474;10.768;2023-04-15T07:08:17;6.27;;;3.47;;
19985;SDS011;10154;52.474;10.768;2023-04-15T07:10:43;4.90;;;3.30;;
19985;SDS011;10154;52.474;10.768;2023-04-15T07:13:09;5.20;;;3.37;;
19985;SDS011;10154;52.474;10.768;2023-04-15T07:15:34;4.50;;;2.50;;
19985;SDS011;10154;52.474;10.768;2023-04-15T07:17:59;6.30;;;2.83;;
19985;SDS011;10154;52.474;10.768;2023-04-15T07:20:25;5.10;;;3.10;;
19985;SDS011;10154;52.474;10.768;2023-04-15T07:22:51;5.90;;;3.40;;
19985;SDS011;10154;52.474;10.768;2023-04-15T07:25:17;6.07;;;3.50;;
19985;SDS011;10154;52.474;10.768;2023-04-15T07:27:43;5.47;;;3.17;;
19985;SDS011;10154;52.474;10.768;2023-04-15T07:30:08;7.00;;;3.67;;
19985;SDS011;10154;52.474;10.768;2023-04-15T07:32:34;6.53;;;3.73;;
19985;SDS011;10154;52.474;10.768;2023-04-15T07:35:00;6.93;;;3.93;;
19985;SDS011;10154;52.474;10.768;2023-04-15T07:37:27;8.33;;;4.90;;
19985;SDS011;10154;52.474;10.768;2023-04-15T07:39:53;10.07;;;5.20;;
19985;SDS011;10154;52.474;10.768;2023-04-15T07:42:19;9.50;;;5.33;;
19985;SDS011;10154;52.474;10.768;2023-04-15T07:44:44;12.20;;;5.70;;
19985;SDS011;10154;52.474;10.768;2023-04-15T07:47:10;10.10;;;5.33;;
19985;SDS011;10154;52.474;10.768;2023-04-15T07:49:36;9.90;;;5.57;;
19985;SDS011;10154;52.474;10.768;2023-04-15T07:52:01;12.10;;;6.50;;
19985;SDS011;10154;52.474;10.768;2023-04-15T07:54:26;12.33;;;6.37;;
19985;SDS011;10154;52.474;10.768;2023-04-15T07:56:52;14.83;;;7.60;;
19985;SDS011;10154;52.474;10.768;2023-04-15T07:59:17;17.27;;;8.40;;
19985;SDS011;10154;52.474;10.768;2023-04-15T08:01:43;15.23;;;7.20;;
19985;SDS011;10154;52.474;10.768;2023-04-15T08:04:09;17.53;;;8.33;;
19985;SDS011;10154;52.474;10.768;2023-04-15T08:06:34;16.57;;;7.90;;
19985;SDS011;10154;52.474;10.768;2023-04-15T08:09:00;16.90;;;8.03;;
19985;SDS011;10154;52.474;10.768;2023-04-15T08:11:25;22.77;;;10.73;;
19985;SDS011;10154;52.474;10.768;2023-04-15T08:13:51;21.23;;;9.90;;
19985;SDS011;10154;52.474;10.768;2023-04-15T08:18:46;17.30;;;8.20;;
19985;SDS011;10154;52.474;10.768;2023-04-15T08:21:13;24.57;;;10.73;;
19985;SDS011;10154;52.474;10.768;2023-04-15T08:23:38;24.37;;;11.17;;
19985;SDS011;10154;52.474;10.768;2023-04-15T08:26:04;23.57;;;11.37;;
19985;SDS011;10154;52.474;10.768;2023-04-15T08:28:30;23.97;;;10.57;;
19985;SDS011;10154;52.474;10.768;2023-04-15T08:30:55;22.83;;;10.87;;
19985;SDS011;10154;52.474;10.768;2023-04-15T08:33:21;26.83;;;12.13;;
19985;SDS011;10154;52.474;10.768;2023-04-15T08:35:47;29.00;;;13.50;;
19985;SDS011;10154;52.474;10.768;2023-04-15T08:38:13;28.40;;;13.27;;
19985;SDS011;10154;52.474;10.768;2023-04-15T08:40:42;29.20;;;13.53;;
19985;SDS011;10154;52.474;10.768;2023-04-15T08:43:09;26.73;;;12.47;;
19985;SDS011;10154;52.474;10.768;2023-04-15T08:45:37;32.10;;;13.60;;
19985;SDS011;10154;52.474;10.768;2023-04-15T08:48:04;30.90;;;13.97;;
19985;SDS011;10154;52.474;10.768;2023-04-15T08:50:30;34.50;;;13.77;;
19985;SDS011;10154;52.474;10.768;2023-04-15T08:52:57;28.33;;;11.93;;
19985;SDS011;10154;52.474;10.768;2023-04-15T08:55:23;31.87;;;13.00;;
19985;SDS011;10154;52.474;10.768;2023-04-15T08:57:57;30.90;;;13.73;;
19985;SDS011;10154;52.474;10.768;2023-04-15T09:00:23;30.53;;;13.77;;
19985;SDS011;10154;52.474;10.768;2023-04-15T09:02:49;30.03;;;13.73;;
19985;SDS011;10154;52.474;10.768;2023-04-15T09:05:14;30.07;;;14.00;;
19985;SDS011;10154;52.474;10.768;2023-04-15T09:07:41;28.53;;;13.27;;
19985;SDS011;10154;52.474;10.768;2023-04-15T09:10:06;35.93;;;15.93;;
19985;SDS011;10154;52.474;10.768;2023-04-15T09:12:36;34.93;;;14.70;;
19985;SDS011;10154;52.474;10.768;2023-04-15T09:15:01;31.23;;;11.90;;
19985;SDS011;10154;52.474;10.768;2023-04-15T09:17:27;28.57;;;13.70;;
19985;SDS011;10154;52.474;10.768;2023-04-15T09:20:09;32.37;;;14.77;;
19985;SDS011;10154;52.474;10.768;2023-04-15T09:22:36;34.53;;;14.93;;
19985;SDS011;10154;52.474;10.768;2023-04-15T09:25:02;32.83;;;14.10;;
19985;SDS011;10154;52.474;10.768;2023-04-15T09:27:28;32.20;;;14.33;;
19985;SDS011;10154;52.474;10.768;2023-04-15T09:29:54;33.93;;;15.47;;
19985;SDS011;10154;52.474;10.768;2023-04-15T09:32:20;36.30;;;15.17;;
19985;SDS011;10154;52.474;10.768;2023-04-15T09:34:47;35.27;;;15.53;;
19985;SDS011;10154;52.474;10.768;2023-04-15T09:37:13;36.73;;;16.07;;
19985;SDS011;10154;52.474;10.768;2023-04-15T09:39:48;36.20;;;15.93;;
19985;SDS011;10154;52.474;10.768;2023-04-15T09:42:15;32.17;;;13.87;;
19985;SDS011;10154;52.474;10.768;2023-04-15T09:44:41;38.23;;;14.10;;
19985;SDS011;10154;52.474;10.768;2023-04-15T09:47:07;34.40;;;14.93;;
19985;SDS011;10154;52.474;10.768;2023-04-15T09:49:32;36.30;;;15.70;;
19985;SDS011;10154;52.474;10.768;2023-04-15T09:52:01;32.57;;;14.23;;
19985;SDS011;10154;52.474;10.768;2023-04-15T09:54:36;36.83;;;15.03;;
19985;SDS011;10154;52.474;10.768;2023-04-15T09:57:05;33.47;;;14.13;;
19985;SDS011;10154;52.474;10.768;2023-04-15T09:59:34;35.33;;;14.77;;
19985;SDS011;10154;52.474;10.768;2023-04-15T10:02:00;34.77;;;16.03;;
19985;SDS011;10154;52.474;10.768;2023-04-15T10:04:28;39.00;;;16.37;;
19985;SDS011;10154;52.474;10.768;2023-04-15T10:06:53;33.73;;;14.97;;
19985;SDS011;10154;52.474;10.768;2023-04-15T10:09:19;33.23;;;14.10;;
19985;SDS011;10154;52.474;10.768;2023-04-15T10:11:44;34.53;;;15.13;;
19985;SDS011;10154;52.474;10.768;2023-04-15T10:14:10;40.30;;;16.23;;
19985;SDS011;10154;52.474;10.768;2023-04-15T10:16:35;36.13;;;16.63;;
19985;SDS011;10154;52.474;10.768;2023-04-15T10:19:03;33.33;;;14.50;;
19985;SDS011;10154;52.474;10.768;2023-04-15T10:21:31;38.73;;;15.77;;
19985;SDS011;10154;52.474;10.768;2023-04-15T10:23:57;35.47;;;14.73;;
19985;SDS011;10154;52.474;10.768;2023-04-15T10:26:22;39.00;;;17.23;;
19985;SDS011;10154;52.474;10.768;2023-04-15T10:28:49;39.57;;;15.93;;
19985;SDS011;10154;52.474;10.768;2023-04-15T10:31:15;34.07;;;15.23;;
19985;SDS011;10154;52.474;10.768;2023-04-15T10:33:41;36.07;;;15.77;;
19985;SDS011;10154;52.474;10.768;2023-04-15T10:36:07;37.07;;;15.43;;
19985;SDS011;10154;52.474;10.768;2023-04-15T10:38:42;39.77;;;16.80;;
19985;SDS011;10154;52.474;10.768;2023-04-15T10:41:16;37.87;;;16.03;;
19985;SDS011;10154;52.474;10.768;2023-04-15T10:44:03;42.23;;;18.17;;
19985;SDS011;10154;52.474;10.768;2023-04-15T10:46:41;45.77;;;18.30;;
19985;SDS011;10154;52.474;10.768;2023-04-15T10:49:11;42.57;;;17.83;;
19985;SDS011;10154;52.474;10.768;2023-04-15T10:51:39;44.07;;;17.33;;
19985;SDS011;10154;52.474;10.768;2023-04-15T10:54:16;43.13;;;17.43;;
19985;SDS011;10154;52.474;10.768;2023-04-15T10:56:42;43.13;;;17.57;;
19985;SDS011;10154;52.474;10.768;2023-04-15T10:59:08;46.50;;;19.17;;
19985;SDS011;10154;52.474;10.768;2023-04-15T11:01:50;43.40;;;17.37;;
19985;SDS011;10154;52.474;10.768;2023-04-15T11:12:37;41.97;;;18.50;;
19985;SDS011;10154;52.474;10.768;2023-04-15T11:20:38;41.30;;;16.50;;
19985;SDS011;10154;52.474;10.768;2023-04-15T11:23:06;43.07;;;18.17;;
19985;SDS011;10154;52.474;10.768;2023-04-15T11:25:33;41.40;;;16.70;;
19985;SDS011;10154;52.474;10.768;2023-04-15T11:28:00;38.53;;;14.27;;
19985;SDS011;10154;52.474;10.768;2023-04-15T11:30:29;40.17;;;16.73;;
19985;SDS011;10154;52.474;10.768;2023-04-15T11:32:59;42.03;;;17.87;;
19985;SDS011;10154;52.474;10.768;2023-04-15T11:35:26;37.10;;;14.47;;
19985;SDS011;10154;52.474;10.768;2023-04-15T11:37:51;35.87;;;15.90;;
19985;SDS011;10154;52.474;10.768;2023-04-15T11:40:23;39.93;;;16.80;;
19985;SDS011;10154;52.474;10.768;2023-04-15T11:43:06;40.33;;;17.00;;
19985;SDS011;10154;52.474;10.768;2023-04-15T11:45:33;42.47;;;18.03;;
19985;SDS011;10154;52.474;10.768;2023-04-15T11:48:09;37.33;;;16.10;;
19985;SDS011;10154;52.474;10.768;2023-04-15T11:50:35;38.83;;;16.00;;
19985;SDS011;10154;52.474;10.768;2023-04-15T11:53:03;33.80;;;15.30;;
19985;SDS011;10154;52.474;10.768;2023-04-15T11:55:29;36.07;;;16.17;;
19985;SDS011;10154;52.474;10.768;2023-04-15T11:58:15;37.43;;;15.07;;
19985;SDS011;10154;52.474;10.768;2023-04-15T12:00:45;39.27;;;17.80;;
19985;SDS011;10154;52.474;10.768;2023-04-15T12:06:18;35.77;;;15.77;;
19985;SDS011;10154;52.474;10.768;2023-04-15T12:11:29;31.17;;;13.83;;
19985;SDS011;10154;52.474;10.768;2023-04-15T12:13:56;34.20;;;15.33;;
19985;SDS011;10154;52.474;10.768;2023-04-15T12:16:46;40.63;;;16.60;;
19985;SDS011;10154;52.474;10.768;2023-04-15T12:19:22;31.23;;;15.37;;
19985;SDS011;10154;52.474;10.768;2023-04-15T12:21:56;41.40;;;18.03;;
19985;SDS011;10154;52.474;10.768;2023-04-15T12:24:23;43.87;;;19.57;;
19985;SDS011;10154;52.474;10.768;2023-04-15T12:26:52;36.50;;;16.70;;
19985;SDS011;10154;52.474;10.768;2023-04-15T12:29:19;35.37;;;17.77;;
19985;SDS011;10154;52.474;10.768;2023-04-15T12:31:45;37.93;;;18.03;;
19985;SDS011;10154;52.474;10.768;2023-04-15T12:34:25;34.73;;;16.60;;
19985;SDS011;10154;52.474;10.768;2023-04-15T12:36:54;32.97;;;16.77;;
19985;SDS011;10154;52.474;10.768;2023-04-15T12:39:22;34.37;;;16.33;;
19985;SDS011;10154;52.474;10.768;2023-04-15T12:41:52;36.23;;;16.40;;
19985;SDS011;10154;52.474;10.768;2023-04-15T12:44:18;34.67;;;16.70;;
19985;SDS011;10154;52.474;10.768;2023-04-15T12:46:44;33.37;;;16.87;;
19985;SDS011;10154;52.474;10.768;2023-04-15T12:49:10;32.33;;;14.87;;
19985;SDS011;10154;52.474;10.768;2023-04-15T12:51:35;30.53;;;14.90;;
19985;SDS011;10154;52.474;10.768;2023-04-15T12:54:01;30.73;;;16.50;;
19985;SDS011;10154;52.474;10.768;2023-04-15T12:56:26;31.73;;;15.73;;
19985;SDS011;10154;52.474;10.768;2023-04-15T12:58:51;31.53;;;15.73;;
19985;SDS011;10154;52.474;10.768;2023-04-15T13:01:17;32.33;;;15.83;;
19985;SDS011;10154;52.474;10.768;2023-04-15T13:03:42;29.17;;;15.63;;
19985;SDS011;10154;52.474;10.768;2023-04-15T13:06:08;31.57;;;16.70;;
19985;SDS011;10154;52.474;10.768;2023-04-15T13:08:33;30.30;;;14.57;;
19985;SDS011;10154;52.474;10.768;2023-04-15T13:10:59;31.17;;;15.57;;
19985;SDS011;10154;52.474;10.768;2023-04-15T13:13:24;31.33;;;16.60;;
19985;SDS011;10154;52.474;10.768;2023-04-15T13:15:51;35.80;;;18.37;;
19985;SDS011;10154;52.474;10.768;2023-04-15T13:18:16;30.23;;;16.00;;
19985;SDS011;10154;52.474;10.768;2023-04-15T13:20:41;30.47;;;15.93;;
19985;SDS011;10154;52.474;10.768;2023-04-15T13:23:07;29.07;;;14.97;;
19985;SDS011;10154;52.474;10.768;2023-04-15T13:25:32;29.13;;;15.70;;
19985;SDS011;10154;52.474;10.768;2023-04-15T13:27:58;26.13;;;15.17;;
19985;SDS011;10154;52.474;10.768;2023-04-15T13:30:25;30.87;;;16.37;;
19985;SDS011;10154;52.474;10.768;2023-04-15T13:32:51;23.37;;;13.03;;
19985;SDS011;10154;52.474;10.768;2023-04-15T13:35:17;23.80;;;12.97;;
19985;SDS011;10154;52.474;10.768;2023-04-15T13:37:43;23.83;;;13.73;;
19985;SDS011;10154;52.474;10.768;2023-04-15T13:40:08;25.43;;;13.60;;
19985;SDS011;10154;52.474;10.768;2023-04-15T13:42:34;26.00;;;14.13;;
19985;SDS011;10154;52.474;10.768;2023-04-15T13:45:00;26.17;;;13.33;;
19985;SDS011;10154;52.474;10.768;2023-04-15T13:47:26;24.23;;;14.67;;
19985;SDS011;10154;52.474;10.768;2023-04-15T13:49:51;22.13;;;12.07;;
19985;SDS011;10154;52.474;10.768;2023-04-15T13:52:18;21.87;;;12.93;;
19985;SDS011;10154;52.474;10.768;2023-04-15T13:54:43;17.57;;;11.53;;
19985;SDS011;10154;52.474;10.768;2023-04-15T13:57:08;21.07;;;12.40;;
19985;SDS011;10154;52.474;10.768;2023-04-15T13:59:34;20.57;;;12.33;;
19985;SDS011;10154;52.474;10.768;2023-04-15T14:01:59;25.13;;;13.70;;
19985;SDS011;10154;52.474;10.768;2023-04-15T14:04:25;21.93;;;12.80;;
19985;SDS011;10154;52.474;10.768;2023-04-15T14:06:50;22.03;;;12.87;;
19985;SDS011;10154;52.474;10.768;2023-04-15T14:09:15;20.00;;;12.47;;
19985;SDS011;10154;52.474;10.768;2023-04-15T14:11:41;21.23;;;12.90;;
19985;SDS011;10154;52.474;10.768;2023-04-15T14:14:07;23.00;;;13.97;;
19985;SDS011;10154;52.474;10.768;2023-04-15T14:16:32;22.50;;;14.03;;
19985;SDS011;10154;52.474;10.768;2023-04-15T14:18:58;20.60;;;13.27;;
19985;SDS011;10154;52.474;10.768;2023-04-15T14:21:23;22.17;;;13.17;;
19985;SDS011;10154;52.474;10.768;2023-04-15T14:23:50;21.00;;;13.70;;
19985;SDS011;10154;52.474;10.768;2023-04-15T14:26:15;17.63;;;12.27;;
19985;SDS011;10154;52.474;10.768;2023-04-15T14:28:40;20.30;;;12.77;;
19985;SDS011;10154;52.474;10.768;2023-04-15T14:31:08;18.97;;;11.93;;
19985;SDS011;10154;52.474;10.768;2023-04-15T14:33:34;18.47;;;12.00;;
19985;SDS011;10154;52.474;10.768;2023-04-15T14:35:59;19.00;;;11.53;;
19985;SDS011;10154;52.474;10.768;2023-04-15T14:38:24;16.77;;;10.67;;
19985;SDS011;10154;52.474;10.768;2023-04-15T14:40:50;14.80;;;9.70;;
19985;SDS011;10154;52.474;10.768;2023-04-15T14:43:15;15.43;;;10.40;;
19985;SDS011;10154;52.474;10.768;2023-04-15T14:45:41;15.43;;;10.10;;